createdAt,value
2019-05-11T00:00:54.299Z,0.60
2019-05-11T00:03:22.374Z,0.55
2019-05-11T00:05:50.469Z,0.40
2019-05-11T00:08:18.741Z,0.60
2019-05-11T00:10:47.021Z,0.70
2019-05-11T00:13:15.067Z,0.80
2019-05-11T00:15:43.222Z,0.50
2019-05-11T00:18:11.376Z,0.60
2019-05-11T00:20:39.487Z,0.60
2019-05-11T00:23:07.604Z,0.60
2019-05-11T00:25:35.833Z,0.60
2019-05-11T00:28:04.027Z,0.70
2019-05-11T00:30:35.198Z,0.60
2019-05-11T00:33:03.471Z,0.60
2019-05-11T00:35:31.608Z,0.70
2019-05-11T00:37:59.758Z,0.70
2019-05-11T00:40:27.878Z,0.78
2019-05-11T00:42:56.021Z,0.60
2019-05-11T00:45:24.168Z,0.70
2019-05-11T00:47:52.297Z,0.40
2019-05-11T00:50:20.382Z,0.75
2019-05-11T00:52:48.486Z,0.88
2019-05-11T00:55:16.559Z,0.57
2019-05-11T00:57:44.716Z,0.68
2019-05-11T01:00:13.357Z,0.70
2019-05-11T01:02:41.503Z,0.60
2019-05-11T01:05:09.831Z,0.50
2019-05-11T01:07:38.005Z,0.50
2019-05-11T01:10:23.021Z,0.70
2019-05-11T01:12:39.052Z,0.70
2019-05-11T01:15:07.421Z,0.50
2019-05-11T01:17:35.484Z,0.60
2019-05-11T01:20:05.837Z,0.70
2019-05-11T01:22:34.011Z,0.50
2019-05-11T01:25:02.080Z,0.65
2019-05-11T01:27:30.153Z,0.40
2019-05-11T01:29:58.317Z,0.60
2019-05-11T01:32:26.388Z,0.70
2019-05-11T01:34:54.473Z,0.70
2019-05-11T01:37:23.605Z,0.42
2019-05-11T01:39:52.070Z,0.60
2019-05-11T01:42:20.225Z,0.57
2019-05-11T01:44:48.311Z,0.50
2019-05-11T01:47:16.506Z,0.62
2019-05-11T01:49:44.586Z,0.60
2019-05-11T01:52:12.636Z,0.50
2019-05-11T01:54:40.728Z,0.60
2019-05-11T01:57:08.847Z,0.45
2019-05-11T01:59:36.949Z,0.47
2019-05-11T02:02:05.110Z,0.50
2019-05-11T02:04:33.207Z,0.50
2019-05-11T02:07:01.409Z,0.50
2019-05-11T02:09:29.545Z,0.50
2019-05-11T02:11:57.616Z,0.50
2019-05-11T02:14:25.711Z,0.40
2019-05-11T02:16:53.859Z,0.40
2019-05-11T02:19:21.915Z,0.45
2019-05-11T02:21:49.994Z,0.60
2019-05-11T02:24:19.230Z,0.70
2019-05-11T02:26:47.383Z,0.50
2019-05-11T02:29:15.496Z,0.55
2019-05-11T02:31:43.899Z,0.65
2019-05-11T02:34:11.993Z,0.70
2019-05-11T02:36:40.150Z,0.88
2019-05-11T02:39:08.381Z,0.72
2019-05-11T02:41:37.672Z,0.78
2019-05-11T02:44:06.067Z,0.53
2019-05-11T02:46:34.583Z,0.47
2019-05-11T02:49:02.674Z,0.60
2019-05-11T02:51:31.410Z,0.45
2019-05-11T02:54:01.015Z,0.50
2019-05-11T02:56:29.092Z,0.60
2019-05-11T02:58:57.269Z,0.57
2019-05-11T03:01:25.727Z,0.65
2019-05-11T03:03:53.804Z,0.37
2019-05-11T03:06:21.868Z,0.50
2019-05-11T03:08:50.050Z,0.53
2019-05-11T03:11:18.238Z,0.60
2019-05-11T03:13:46.293Z,0.40
2019-05-11T03:16:14.386Z,0.33
2019-05-11T03:18:42.541Z,0.40
2019-05-11T03:21:10.631Z,0.47
2019-05-11T03:23:38.717Z,0.45
2019-05-11T03:26:06.916Z,0.60
2019-05-11T03:28:34.971Z,0.30
2019-05-11T03:31:03.098Z,0.40
2019-05-11T03:33:31.236Z,0.47
2019-05-11T03:35:59.393Z,0.40
2019-05-11T03:38:27.546Z,0.40
2019-05-11T03:40:56.773Z,0.40
2019-05-11T03:43:24.842Z,0.30
2019-05-11T03:45:53.031Z,0.40
2019-05-11T03:48:21.149Z,0.40
2019-05-11T03:50:49.220Z,0.42
2019-05-11T03:53:17.395Z,0.30
2019-05-11T03:55:45.592Z,0.33
2019-05-11T03:58:13.686Z,0.28
2019-05-11T04:00:41.847Z,0.40
2019-05-11T04:03:10.003Z,0.30
2019-05-11T04:05:38.170Z,0.37
2019-05-11T04:10:45.925Z,0.28
2019-05-11T04:13:14.004Z,0.23
2019-05-11T04:15:42.124Z,0.40
2019-05-11T04:18:10.196Z,0.30
2019-05-11T04:20:38.320Z,0.20
2019-05-11T04:23:06.383Z,0.40
2019-05-11T04:25:34.435Z,0.30
2019-05-11T04:28:02.525Z,0.30
2019-05-11T04:30:30.645Z,0.30
2019-05-11T04:32:59.808Z,0.30
2019-05-11T04:35:27.902Z,0.42
2019-05-11T04:37:56.039Z,0.28
2019-05-11T04:40:24.179Z,0.40
2019-05-11T04:42:55.754Z,0.20
2019-05-11T04:45:22.037Z,0.30
2019-05-11T04:47:50.182Z,0.30
2019-05-11T04:50:18.243Z,0.23
2019-05-11T04:52:46.315Z,0.30
2019-05-11T04:55:14.558Z,0.40
2019-05-11T04:57:42.652Z,0.20
2019-05-11T05:00:11.090Z,0.30
2019-05-11T05:02:39.307Z,0.20
2019-05-11T05:05:07.443Z,0.30
2019-05-11T05:07:35.515Z,0.50
2019-05-11T05:10:04.150Z,0.30
2019-05-11T05:12:32.240Z,0.30
2019-05-11T05:15:00.312Z,0.30
2019-05-11T05:17:28.447Z,0.30
2019-05-11T05:19:56.520Z,0.40
2019-05-11T05:22:27.722Z,0.35
2019-05-11T05:24:54.489Z,0.30
2019-05-11T05:27:22.580Z,0.40
2019-05-11T05:29:50.706Z,0.20
2019-05-11T05:32:18.804Z,0.28
2019-05-11T05:34:46.875Z,0.30
2019-05-11T05:37:14.956Z,0.28
2019-05-11T05:39:43.108Z,0.30
2019-05-11T05:42:11.288Z,0.40
2019-05-11T05:44:39.520Z,0.30
2019-05-11T05:47:07.660Z,0.30
2019-05-11T05:49:36.868Z,0.20
2019-05-11T05:52:05.021Z,0.30
2019-05-11T05:54:33.269Z,0.30
2019-05-11T05:57:01.430Z,0.20
2019-05-11T05:59:30.147Z,0.25
2019-05-11T06:01:58.201Z,0.30
2019-05-11T06:04:26.429Z,0.28
2019-05-11T06:06:55.657Z,0.20
2019-05-11T06:09:23.738Z,0.20
2019-05-11T06:11:51.801Z,0.20
2019-05-11T06:14:19.877Z,0.15
2019-05-11T06:16:47.996Z,0.13
2019-05-11T06:19:16.204Z,0.30
2019-05-11T06:21:44.291Z,0.20
2019-05-11T06:24:12.363Z,0.20
2019-05-11T06:26:40.449Z,0.20
2019-05-11T06:29:08.595Z,0.20
2019-05-11T06:31:36.669Z,0.20
2019-05-11T06:34:04.755Z,0.20
2019-05-11T06:36:33.138Z,0.10
2019-05-11T06:39:01.347Z,0.35
2019-05-11T06:41:31.028Z,0.20
2019-05-11T06:44:01.716Z,0.30
2019-05-11T06:46:29.350Z,0.30
2019-05-11T06:48:57.494Z,0.30
2019-05-11T06:51:25.644Z,0.30
2019-05-11T06:53:53.888Z,0.40
2019-05-11T06:56:22.114Z,0.33
2019-05-11T06:58:50.296Z,0.30
2019-05-11T07:01:18.496Z,0.40
2019-05-11T07:03:46.619Z,0.30
2019-05-11T07:06:14.765Z,0.30
2019-05-11T07:08:43.653Z,0.30
2019-05-11T07:11:11.791Z,0.50
2019-05-11T07:13:39.920Z,0.40
2019-05-11T07:16:08.085Z,0.30
2019-05-11T07:18:36.258Z,0.30
2019-05-11T07:21:05.695Z,0.35
2019-05-11T07:23:33.944Z,0.50
2019-05-11T07:26:02.021Z,0.30
2019-05-11T07:28:30.167Z,0.40
2019-05-11T07:30:58.275Z,0.20
2019-05-11T07:33:28.559Z,0.40
2019-05-11T07:35:58.127Z,0.30
2019-05-11T07:38:27.815Z,0.43
2019-05-11T07:40:58.049Z,0.40
2019-05-11T07:43:25.571Z,0.30
2019-05-11T07:45:53.643Z,0.45
2019-05-11T07:48:21.808Z,0.42
2019-05-11T07:50:49.895Z,0.30
2019-05-11T07:53:18.662Z,0.30
2019-05-11T07:55:48.500Z,0.40
2019-05-11T07:58:20.175Z,0.45
2019-05-11T08:00:48.857Z,0.30
2019-05-11T08:03:18.084Z,0.45
2019-05-11T08:05:47.846Z,0.37
2019-05-11T08:08:18.071Z,0.50
2019-05-11T08:10:48.218Z,0.30
2019-05-11T08:13:17.849Z,0.33
2019-05-11T08:15:45.517Z,0.33
2019-05-11T08:18:13.734Z,0.23
2019-05-11T08:20:41.825Z,0.40
2019-05-11T08:23:10.011Z,0.30
2019-05-11T08:25:38.216Z,0.40
2019-05-11T08:28:11.547Z,0.20
2019-05-11T08:30:38.144Z,0.40
2019-05-11T08:33:08.512Z,0.30
2019-05-11T08:35:35.874Z,0.40
2019-05-11T08:38:04.008Z,0.23
2019-05-11T08:40:32.106Z,0.20
2019-05-11T08:43:00.252Z,0.30
2019-05-11T08:45:28.388Z,0.20
2019-05-11T08:47:57.957Z,0.30
2019-05-11T08:50:27.921Z,0.30
2019-05-11T08:52:58.073Z,0.30
2019-05-11T08:55:28.784Z,0.40
2019-05-11T08:57:58.477Z,0.40
2019-05-11T09:00:28.234Z,0.47
2019-05-11T09:02:58.043Z,0.50
2019-05-11T09:05:27.820Z,0.30
2019-05-11T09:07:57.571Z,0.30
2019-05-11T09:10:27.864Z,0.20
2019-05-11T09:12:55.172Z,0.40
2019-05-11T09:15:33.705Z,0.33
2019-05-11T09:17:53.108Z,0.30
2019-05-11T09:20:21.168Z,0.20
2019-05-11T09:22:49.355Z,0.33
2019-05-11T09:25:18.286Z,0.40
2019-05-11T09:27:48.202Z,0.30
2019-05-11T09:30:18.448Z,0.35
2019-05-11T09:32:47.969Z,0.30
2019-05-11T09:35:18.666Z,0.30
2019-05-11T09:37:48.418Z,0.42
2019-05-11T09:40:18.206Z,0.30
2019-05-11T09:42:48.072Z,0.30
2019-05-11T09:45:18.431Z,0.42
2019-05-11T09:47:47.716Z,0.30
2019-05-11T09:50:17.888Z,0.20
2019-05-11T09:52:45.935Z,0.47
2019-05-11T09:55:15.161Z,0.30
2019-05-11T09:57:43.264Z,0.40
2019-05-11T10:00:11.857Z,0.50
2019-05-11T10:02:39.990Z,0.30
2019-05-11T10:05:08.510Z,0.40
2019-05-11T10:07:38.134Z,0.50
2019-05-11T10:10:09.183Z,0.50
2019-05-11T10:12:38.024Z,0.23
2019-05-11T10:15:08.364Z,0.30
2019-05-11T10:17:38.219Z,0.20
2019-05-11T10:20:09.331Z,0.30
2019-05-11T10:22:38.511Z,0.28
2019-05-11T10:25:09.011Z,0.20
2019-05-11T10:27:42.897Z,0.20
2019-05-11T10:30:09.942Z,0.30
2019-05-11T10:32:38.615Z,0.30
2019-05-11T10:35:07.967Z,0.33
2019-05-11T10:37:38.699Z,0.30
2019-05-11T10:40:06.592Z,0.40
2019-05-11T10:42:34.659Z,0.30
2019-05-11T10:45:02.745Z,0.42
2019-05-11T10:47:33.982Z,0.47
2019-05-11T10:50:02.106Z,0.37
2019-05-11T10:52:30.288Z,0.35
2019-05-11T10:54:58.694Z,0.37
2019-05-11T10:57:28.333Z,0.20
2019-05-11T10:59:57.946Z,0.25
2019-05-11T11:02:27.756Z,0.40
2019-05-11T11:04:56.276Z,0.20
2019-05-11T11:07:24.433Z,0.40
2019-05-11T11:09:54.037Z,0.30
2019-05-11T11:12:22.186Z,0.20
2019-05-11T11:14:50.279Z,0.15
2019-05-11T11:17:19.394Z,0.20
2019-05-11T11:19:48.679Z,0.30
2019-05-11T11:22:36.230Z,0.20
2019-05-11T11:24:48.167Z,0.30
2019-05-11T11:27:18.421Z,0.37
2019-05-11T11:29:47.556Z,0.40
2019-05-11T11:32:15.843Z,0.37
2019-05-11T11:34:43.930Z,0.70
2019-05-11T11:37:11.997Z,0.40
2019-05-11T11:39:40.082Z,0.50
2019-05-11T11:42:08.449Z,0.50
2019-05-11T11:44:37.951Z,0.50
2019-05-11T11:47:08.448Z,0.20
2019-05-11T11:49:38.231Z,0.30
2019-05-11T11:52:08.127Z,0.50
2019-05-11T11:54:35.605Z,0.30
2019-05-11T11:57:03.665Z,0.30
2019-05-11T11:59:31.738Z,0.50
2019-05-11T12:01:59.829Z,0.45
2019-05-11T12:04:28.428Z,0.42
2019-05-11T12:06:58.133Z,0.30
2019-05-11T12:09:28.405Z,0.40
2019-05-11T12:11:58.158Z,0.30
2019-05-11T12:14:27.995Z,0.30
2019-05-11T12:17:04.986Z,0.25
2019-05-11T12:19:27.884Z,0.30
2019-05-11T12:21:57.924Z,0.33
2019-05-11T12:24:25.559Z,0.20
2019-05-11T12:26:53.781Z,0.30
2019-05-11T12:29:21.897Z,0.30
2019-05-11T12:31:49.985Z,0.28
2019-05-11T12:34:18.129Z,0.30
2019-05-11T12:36:47.961Z,0.30
2019-05-11T12:39:18.974Z,0.30
2019-05-11T12:41:47.952Z,0.30
2019-05-11T12:44:15.809Z,0.20
2019-05-11T12:46:45.553Z,0.20
2019-05-11T12:49:13.634Z,0.20
2019-05-11T12:51:41.707Z,0.23
2019-05-11T12:54:09.800Z,0.25
2019-05-11T12:56:38.466Z,0.20
2019-05-11T12:59:08.206Z,0.40
2019-05-11T13:01:38.152Z,0.30
2019-05-11T13:04:09.011Z,0.28
2019-05-11T13:06:38.326Z,0.47
2019-05-11T13:09:08.088Z,0.30
2019-05-11T13:11:37.993Z,0.40
2019-05-11T13:14:07.972Z,0.40
2019-05-11T13:16:37.878Z,0.70
2019-05-11T13:19:08.163Z,0.27
2019-05-11T13:21:38.013Z,0.40
2019-05-11T13:24:05.432Z,0.37
2019-05-11T13:26:33.532Z,0.30
2019-05-11T13:29:01.630Z,0.30
2019-05-11T13:31:29.693Z,0.42
2019-05-11T13:33:58.501Z,0.30
2019-05-11T13:36:28.615Z,0.40
2019-05-11T13:38:58.784Z,0.40
2019-05-11T13:41:28.043Z,0.37
2019-05-11T13:43:57.703Z,0.30
2019-05-11T13:46:28.168Z,0.33
2019-05-11T13:48:57.817Z,0.27
2019-05-11T13:51:25.589Z,0.40
2019-05-11T13:53:53.724Z,0.30
2019-05-11T13:56:21.825Z,0.40
2019-05-11T13:58:49.870Z,0.50
2019-05-11T14:01:18.563Z,0.40
2019-05-11T14:03:48.449Z,0.40
2019-05-11T14:06:18.389Z,0.55
2019-05-11T14:08:48.157Z,0.30
2019-05-11T14:11:18.277Z,0.30
2019-05-11T14:13:47.981Z,0.30
2019-05-11T14:16:17.900Z,0.30
2019-05-11T14:18:45.811Z,0.37
2019-05-11T14:21:13.905Z,0.40
2019-05-11T14:23:41.985Z,0.30
2019-05-11T14:26:10.119Z,0.45
2019-05-11T14:28:38.359Z,0.30
2019-05-11T14:31:08.232Z,0.40
2019-05-11T14:33:38.387Z,0.40
2019-05-11T14:36:08.371Z,0.30
2019-05-11T14:38:37.926Z,0.30
2019-05-11T14:41:07.763Z,0.40
2019-05-11T14:43:38.162Z,0.30
2019-05-11T14:46:08.569Z,0.35
2019-05-11T14:48:38.930Z,0.42
2019-05-11T14:51:08.583Z,0.23
2019-05-11T14:53:37.811Z,0.20
2019-05-11T14:56:08.248Z,0.23
2019-05-11T14:58:38.413Z,0.30
2019-05-11T15:01:05.880Z,0.30
2019-05-11T15:03:34.041Z,0.20
2019-05-11T15:06:02.100Z,0.20
2019-05-11T15:08:30.795Z,0.30
2019-05-11T15:10:58.908Z,0.30
2019-05-11T15:13:28.834Z,0.30
2019-05-11T15:15:58.688Z,0.20
2019-05-11T15:18:37.972Z,0.20
2019-05-11T15:20:58.528Z,0.40
2019-05-11T15:23:28.497Z,0.30
2019-05-11T15:25:58.708Z,0.25
2019-05-11T15:28:28.533Z,0.37
2019-05-11T15:30:58.639Z,0.40
2019-05-11T15:33:27.896Z,0.30
2019-05-11T15:35:58.322Z,0.40
2019-05-11T15:38:28.280Z,0.20
2019-05-11T15:40:57.875Z,0.30
2019-05-11T15:43:28.052Z,0.30
2019-05-11T15:45:57.747Z,0.20
2019-05-11T15:48:25.465Z,0.30
2019-05-11T15:50:53.593Z,0.20
2019-05-11T15:53:21.667Z,0.30
2019-05-11T15:55:49.826Z,0.33
2019-05-11T15:58:21.794Z,0.20
2019-05-11T16:00:49.751Z,0.30
2019-05-11T16:03:18.584Z,0.40
2019-05-11T16:05:47.927Z,0.30
2019-05-11T16:08:18.597Z,0.25
2019-05-11T16:10:45.910Z,0.20
2019-05-11T16:13:14.152Z,0.30
2019-05-11T16:15:42.678Z,0.20
2019-05-11T16:18:10.779Z,0.40
2019-05-11T16:20:38.842Z,0.42
2019-05-11T16:23:08.488Z,0.33
2019-05-11T16:25:40.738Z,0.30
2019-05-11T16:28:07.804Z,0.40
2019-05-11T16:30:37.880Z,0.20
2019-05-11T16:33:08.657Z,0.20
2019-05-11T16:35:38.238Z,0.25
2019-05-11T16:38:07.753Z,0.23
2019-05-11T16:40:35.975Z,0.20
2019-05-11T16:43:04.071Z,0.25
2019-05-11T16:45:34.123Z,0.20
2019-05-11T16:48:02.301Z,0.30
2019-05-11T16:50:31.148Z,0.20
2019-05-11T16:52:59.317Z,0.20
2019-05-11T16:55:28.372Z,0.20
2019-05-11T16:57:58.600Z,0.20
2019-05-11T17:00:26.293Z,0.10
2019-05-11T17:02:54.617Z,0.20
2019-05-11T17:05:26.794Z,0.20
2019-05-11T17:07:53.738Z,0.10
2019-05-11T17:10:21.823Z,0.13
2019-05-11T17:12:49.898Z,0.20
2019-05-11T17:15:18.759Z,0.20
2019-05-11T17:17:48.622Z,0.30
2019-05-11T17:20:18.703Z,0.10
2019-05-11T17:22:48.127Z,0.10
2019-05-11T17:25:18.777Z,0.10
2019-05-11T17:27:48.720Z,0.25
2019-05-11T17:30:19.180Z,0.23
2019-05-11T17:32:49.115Z,0.10
2019-05-11T17:35:17.716Z,0.10
2019-05-11T17:37:48.205Z,0.20
2019-05-11T17:40:18.607Z,0.10
2019-05-11T17:42:48.073Z,0.20
2019-05-11T17:45:15.509Z,0.20
2019-05-11T17:47:44.682Z,0.10
2019-05-11T17:50:12.759Z,0.10
2019-05-11T17:52:40.889Z,0.28
2019-05-11T17:55:09.063Z,0.20
2019-05-11T17:57:38.204Z,0.10
2019-05-11T18:00:08.507Z,0.10
2019-05-11T18:02:39.008Z,0.15
2019-05-11T18:05:08.892Z,0.20
2019-05-11T18:07:38.571Z,0.15
2019-05-11T18:10:08.150Z,0.15
2019-05-11T18:12:38.830Z,0.17
2019-05-11T18:15:08.474Z,0.20
2019-05-11T18:17:36.721Z,0.30
2019-05-11T18:20:14.667Z,0.40
2019-05-11T18:22:38.425Z,0.10
2019-05-11T18:25:08.635Z,0.10
2019-05-11T18:27:38.040Z,0.25
2019-05-11T18:30:08.713Z,0.20
2019-05-11T18:32:39.642Z,0.20
2019-05-11T18:35:08.424Z,0.17
2019-05-11T18:37:38.665Z,0.10
2019-05-11T18:40:06.957Z,0.10
2019-05-11T18:42:35.123Z,0.13
2019-05-11T18:45:03.593Z,0.20
2019-05-11T18:47:31.706Z,0.03
2019-05-11T18:49:59.803Z,0.20
2019-05-11T18:52:28.013Z,0.15
2019-05-11T18:54:57.860Z,0.10
2019-05-11T18:57:27.801Z,0.10
2019-05-11T18:59:56.099Z,0.20
2019-05-11T19:02:24.195Z,0.10
2019-05-11T19:04:52.398Z,0.10
2019-05-11T19:07:20.643Z,0.10
2019-05-11T19:09:48.692Z,0.10
2019-05-11T19:12:18.675Z,0.20
2019-05-11T19:14:47.996Z,0.10
2019-05-11T19:17:18.169Z,0.08
2019-05-11T19:19:48.455Z,0.10
2019-05-11T19:22:18.192Z,0.10
2019-05-11T19:24:47.511Z,0.10
2019-05-11T19:27:15.358Z,0.20
2019-05-11T19:29:43.416Z,0.10
2019-05-11T19:32:12.574Z,0.10
2019-05-11T19:34:40.948Z,0.10
2019-05-11T19:37:09.042Z,0.10
2019-05-11T19:39:38.408Z,0.28
2019-05-11T19:42:07.867Z,0.10
2019-05-11T19:44:38.477Z,0.10
2019-05-11T19:47:05.931Z,0.20
2019-05-11T19:49:34.047Z,0.28
2019-05-11T19:52:02.191Z,0.20
2019-05-11T19:54:30.268Z,0.20
2019-05-11T19:56:58.351Z,0.20
2019-05-11T19:59:27.997Z,0.30
2019-05-11T20:01:59.787Z,0.20
2019-05-11T20:04:28.124Z,0.10
2019-05-11T20:06:58.103Z,0.20
2019-05-11T20:09:28.163Z,0.20
2019-05-11T20:11:58.116Z,0.28
2019-05-11T20:14:25.372Z,0.10
2019-05-11T20:16:53.454Z,0.20
2019-05-11T20:19:21.590Z,0.10
2019-05-11T20:21:49.658Z,0.10
2019-05-11T20:24:18.675Z,0.13
2019-05-11T20:26:48.119Z,0.10
2019-05-11T20:29:16.269Z,0.10
2019-05-11T20:31:44.402Z,0.10
2019-05-11T20:34:12.568Z,0.10
2019-05-11T20:36:40.653Z,0.10
2019-05-11T20:39:08.744Z,0.10
2019-05-11T20:41:38.484Z,0.20
2019-05-11T20:44:08.678Z,0.00
2019-05-11T20:46:38.308Z,0.10
2019-05-11T20:49:06.488Z,0.17
2019-05-11T20:51:37.157Z,0.10
2019-05-11T20:54:04.413Z,0.10
2019-05-11T20:56:32.548Z,0.20
2019-05-11T20:59:01.060Z,0.10
2019-05-11T21:01:29.215Z,0.10
2019-05-11T21:03:58.521Z,0.10
2019-05-11T21:06:29.357Z,0.10
2019-05-11T21:08:56.788Z,0.10
2019-05-11T21:11:24.939Z,0.17
2019-05-11T21:13:52.968Z,0.20
2019-05-11T21:16:21.060Z,0.20
2019-05-11T21:18:49.170Z,0.20
2019-05-11T21:21:18.307Z,0.20
2019-05-11T21:23:48.668Z,0.20
2019-05-11T21:26:18.709Z,0.10
2019-05-11T21:28:48.506Z,0.13
2019-05-11T21:31:18.379Z,0.10
2019-05-11T21:33:45.633Z,0.10
2019-05-11T21:36:13.771Z,0.17
2019-05-11T21:38:41.862Z,0.10
2019-05-11T21:41:09.907Z,0.10
2019-05-11T21:43:38.059Z,0.00
2019-05-11T21:46:08.224Z,0.10
2019-05-11T21:48:35.921Z,0.10
2019-05-11T21:51:04.025Z,0.10
2019-05-11T21:53:32.163Z,0.10
2019-05-11T21:56:00.230Z,0.00
2019-05-11T21:58:28.579Z,0.10
2019-05-11T22:00:56.975Z,0.10
2019-05-11T22:03:28.060Z,0.10
2019-05-11T22:05:57.859Z,0.10
2019-05-11T22:08:28.221Z,0.10
2019-05-11T22:10:59.701Z,0.10
2019-05-11T22:13:25.801Z,0.13
2019-05-11T22:15:53.923Z,0.10
2019-05-11T22:18:30.794Z,0.10
2019-05-11T22:20:51.815Z,0.10
2019-05-11T22:23:19.880Z,0.10
2019-05-11T22:25:50.584Z,0.10
2019-05-11T22:28:18.023Z,0.10
2019-05-11T22:30:48.366Z,0.10
2019-05-11T22:33:17.749Z,0.10
2019-05-11T22:35:48.065Z,0.10
2019-05-11T22:38:15.756Z,0.10
2019-05-11T22:40:44.064Z,0.10
2019-05-11T22:43:12.258Z,0.15
2019-05-11T22:45:40.377Z,0.10
2019-05-11T22:48:08.472Z,0.10
2019-05-11T22:50:38.165Z,0.10
2019-05-11T22:53:08.751Z,0.00
2019-05-11T22:55:38.091Z,0.10
2019-05-11T22:58:08.268Z,0.10
2019-05-11T23:00:39.627Z,0.10
2019-05-11T23:03:10.590Z,0.10
2019-05-11T23:05:38.297Z,0.10
2019-05-11T23:08:07.650Z,0.10
2019-05-11T23:10:35.934Z,0.10
2019-05-11T23:13:04.010Z,0.00
2019-05-11T23:15:32.209Z,0.08
2019-05-11T23:18:00.316Z,0.10
2019-05-11T23:20:30.197Z,0.10
2019-05-11T23:23:01.497Z,0.00
2019-05-11T23:25:28.820Z,0.20
2019-05-11T23:27:58.756Z,0.05
2019-05-11T23:30:28.055Z,0.03
2019-05-11T23:32:58.336Z,0.10
2019-05-11T23:35:28.408Z,0.10
2019-05-11T23:37:58.097Z,0.10
2019-05-11T23:40:28.400Z,0.10
2019-05-11T23:42:57.877Z,0.20
2019-05-11T23:45:27.981Z,0.10
2019-05-11T23:47:56.051Z,0.10
2019-05-11T23:50:24.144Z,0.20
2019-05-11T23:53:05.501Z,0.10
2019-05-11T23:55:21.985Z,0.20
2019-05-11T23:57:50.238Z,0.10
